sensor_id;sensor_type;location;lat;lon;timestamp;pressure;altitude;pressure_sealevel;temperature;humidity
12951;BME280;6540;50.858;7.232;2022-09-11T00:00:07;51410.75;;;-142.34;25.54
12951;BME280;6540;50.858;7.232;2022-09-11T00:02:33;51434.97;;;-142.34;26.20
12951;BME280;6540;50.858;7.232;2022-09-11T00:04:58;51414.78;;;-142.34;25.97
12951;BME280;6540;50.858;7.232;2022-09-11T00:07:23;51390.59;;;-142.34;25.09
12951;BME280;6540;50.858;7.232;2022-09-11T00:09:52;51356.31;;;-142.34;24.83
12951;BME280;6540;50.858;7.232;2022-09-11T00:12:17;51378.50;;;-142.34;24.95
12951;BME280;6540;50.858;7.232;2022-09-11T00:14:42;51350.25;;;-142.34;24.88
12951;BME280;6540;50.858;7.232;2022-09-11T00:17:08;51338.16;;;-142.34;24.75
12951;BME280;6540;50.858;7.232;2022-09-11T00:19:33;51346.22;;;-142.34;24.64
12951;BME280;6540;50.858;7.232;2022-09-11T00:21:59;51354.28;;;-142.34;24.93
12951;BME280;6540;50.858;7.232;2022-09-11T00:24:25;51354.28;;;-142.34;24.56
12951;BME280;6540;50.858;7.232;2022-09-11T00:26:50;51354.28;;;-142.34;24.54
12951;BME280;6540;50.858;7.232;2022-09-11T00:29:15;51408.75;;;-142.34;25.82
12951;BME280;6540;50.858;7.232;2022-09-11T00:31:41;51366.38;;;-142.34;25.34
12951;BME280;6540;50.858;7.232;2022-09-11T00:34:06;51382.53;;;-142.34;24.66
12951;BME280;6540;50.858;7.232;2022-09-11T00:36:31;51354.28;;;-142.34;25.15
12951;BME280;6540;50.858;7.232;2022-09-11T00:38:57;51350.25;;;-142.34;24.93
12951;BME280;6540;50.858;7.232;2022-09-11T00:44:00;51330.06;;;-142.34;24.55
12951;BME280;6540;50.858;7.232;2022-09-11T00:54:47;51382.53;;;-142.34;25.37
12951;BME280;6540;50.858;7.232;2022-09-11T00:57:15;51378.50;;;-142.34;25.68
12951;BME280;6540;50.858;7.232;2022-09-11T00:59:43;51313.94;;;-142.34;24.39
12951;BME280;6540;50.858;7.232;2022-09-11T01:02:11;51328.06;;;-142.34;24.87
12951;BME280;6540;50.858;7.232;2022-09-11T01:04:39;51402.69;;;-142.34;25.29
12951;BME280;6540;50.858;7.232;2022-09-11T01:07:04;51463.22;;;-142.34;26.32
12951;BME280;6540;50.858;7.232;2022-09-11T01:09:31;51436.97;;;-142.34;26.39
12951;BME280;6540;50.858;7.232;2022-09-11T01:12:10;51455.13;;;-142.34;26.49
12951;BME280;6540;50.858;7.232;2022-09-11T01:28:14;51336.13;;;-142.34;24.26
12951;BME280;6540;50.858;7.232;2022-09-11T01:30:45;51374.44;;;-142.34;25.23
12951;BME280;6540;50.858;7.232;2022-09-11T01:43:57;51366.38;;;-142.34;25.10
12951;BME280;6540;50.858;7.232;2022-09-11T01:46:25;51463.22;;;-142.34;26.85
12951;BME280;6540;50.858;7.232;2022-09-11T01:48:57;51459.16;;;-142.34;26.68
12951;BME280;6540;50.858;7.232;2022-09-11T01:51:28;51447.06;;;-142.34;26.13
12951;BME280;6540;50.858;7.232;2022-09-11T01:53:55;51420.84;;;-142.34;25.52
12951;BME280;6540;50.858;7.232;2022-09-11T01:56:27;51374.44;;;-142.34;25.08
12951;BME280;6540;50.858;7.232;2022-09-11T01:58:57;51380.50;;;-142.34;25.09
12951;BME280;6540;50.858;7.232;2022-09-11T02:01:32;51354.28;;;-142.34;25.24
12951;BME280;6540;50.858;7.232;2022-09-11T02:04:05;51378.50;;;-142.34;24.85
12951;BME280;6540;50.858;7.232;2022-09-11T02:06:47;51362.34;;;-142.34;24.75
12951;BME280;6540;50.858;7.232;2022-09-11T02:09:16;51374.44;;;-142.34;24.98
12951;BME280;6540;50.858;7.232;2022-09-11T02:11:44;51376.47;;;-142.34;25.45
12951;BME280;6540;50.858;7.232;2022-09-11T02:14:22;51398.66;;;-142.34;25.29
12951;BME280;6540;50.858;7.232;2022-09-11T02:17:05;51386.56;;;-142.34;24.92
12951;BME280;6540;50.858;7.232;2022-09-11T02:19:33;51428.91;;;-142.34;26.12
12951;BME280;6540;50.858;7.232;2022-09-11T02:21:58;51386.56;;;-142.34;25.27
12951;BME280;6540;50.858;7.232;2022-09-11T02:24:25;51394.63;;;-142.34;25.29
12951;BME280;6540;50.858;7.232;2022-09-11T02:26:57;51362.34;;;-142.34;25.27
12951;BME280;6540;50.858;7.232;2022-09-11T02:29:24;51384.53;;;-142.34;25.16
12951;BME280;6540;50.858;7.232;2022-09-11T02:31:51;51382.53;;;-142.34;25.15
12951;BME280;6540;50.858;7.232;2022-09-11T02:34:23;51366.38;;;-142.34;25.05
12951;BME280;6540;50.858;7.232;2022-09-11T02:39:30;51364.38;;;-142.34;24.78
12951;BME280;6540;50.858;7.232;2022-09-11T02:53:06;51406.72;;;-142.34;25.20
12951;BME280;6540;50.858;7.232;2022-09-11T02:55:58;51305.88;;;-142.34;24.51
12951;BME280;6540;50.858;7.232;2022-09-11T02:58:29;51354.28;;;-142.34;24.61
12951;BME280;6540;50.858;7.232;2022-09-11T03:00:59;51348.22;;;-142.34;24.95
12951;BME280;6540;50.858;7.232;2022-09-11T03:03:25;51503.53;;;-142.34;27.68
12951;BME280;6540;50.858;7.232;2022-09-11T03:05:51;51497.50;;;-142.34;27.54
12951;BME280;6540;50.858;7.232;2022-09-11T03:08:17;51503.53;;;-142.34;27.38
12951;BME280;6540;50.858;7.232;2022-09-11T03:10:42;51414.78;;;-142.34;25.45
12951;BME280;6540;50.858;7.232;2022-09-11T03:13:15;51398.66;;;-142.34;25.52
12951;BME280;6540;50.858;7.232;2022-09-11T03:15:41;51394.63;;;-142.34;24.94
12951;BME280;6540;50.858;7.232;2022-09-11T03:18:08;51350.25;;;-142.34;24.71
12951;BME280;6540;50.858;7.232;2022-09-11T03:20:33;51352.28;;;-142.34;24.39
12951;BME280;6540;50.858;7.232;2022-09-11T03:22:58;51358.31;;;-142.34;25.02
12951;BME280;6540;50.858;7.232;2022-09-11T03:25:24;51360.34;;;-142.34;25.09
12951;BME280;6540;50.858;7.232;2022-09-11T03:27:52;51441.03;;;-142.34;26.19
12951;BME280;6540;50.858;7.232;2022-09-11T03:30:19;51400.69;;;-142.34;25.13
12951;BME280;6540;50.858;7.232;2022-09-11T03:32:44;51475.31;;;-142.34;26.32
12951;BME280;6540;50.858;7.232;2022-09-11T03:35:09;51459.16;;;-142.34;26.71
12951;BME280;6540;50.858;7.232;2022-09-11T03:37:35;51414.78;;;-142.34;25.40
12951;BME280;6540;50.858;7.232;2022-09-11T03:40:01;51457.16;;;-142.34;26.66
12951;BME280;6540;50.858;7.232;2022-09-11T03:42:26;51531.78;;;-142.34;27.94
12951;BME280;6540;50.858;7.232;2022-09-11T03:44:52;51443.03;;;-142.34;26.14
12951;BME280;6540;50.858;7.232;2022-09-11T03:47:18;51390.59;;;-142.34;24.84
12951;BME280;6540;50.858;7.232;2022-09-11T03:49:46;51449.09;;;-142.34;25.73
12951;BME280;6540;50.858;7.232;2022-09-11T03:52:12;51384.53;;;-142.34;24.93
12951;BME280;6540;50.858;7.232;2022-09-11T03:54:37;51447.06;;;-142.34;25.49
12951;BME280;6540;50.858;7.232;2022-09-11T03:57:04;51475.31;;;-142.34;26.62
12951;BME280;6540;50.858;7.232;2022-09-11T03:59:30;51537.84;;;-142.34;28.05
12951;BME280;6540;50.858;7.232;2022-09-11T04:01:55;51505.56;;;-142.34;26.88
12951;BME280;6540;50.858;7.232;2022-09-11T04:04:20;51551.97;;;-142.34;28.94
12951;BME280;6540;50.858;7.232;2022-09-11T04:06:46;51612.47;;;-142.34;29.90
12951;BME280;6540;50.858;7.232;2022-09-11T04:09:11;51495.47;;;-142.34;26.89
12951;BME280;6540;50.858;7.232;2022-09-11T04:11:37;51513.63;;;-142.34;27.06
12951;BME280;6540;50.858;7.232;2022-09-11T04:14:06;51418.84;;;-142.34;25.63
12951;BME280;6540;50.858;7.232;2022-09-11T04:16:31;51382.53;;;-142.34;25.36
12951;BME280;6540;50.858;7.232;2022-09-11T04:18:58;51394.63;;;-142.34;25.43
12951;BME280;6540;50.858;7.232;2022-09-11T04:21:25;51410.75;;;-142.34;25.12
12951;BME280;6540;50.858;7.232;2022-09-11T04:23:52;51374.44;;;-142.34;24.83
12951;BME280;6540;50.858;7.232;2022-09-11T04:26:22;51525.75;;;-142.34;27.49
12951;BME280;6540;50.858;7.232;2022-09-11T04:28:47;51489.44;;;-142.34;26.66
12951;BME280;6540;50.858;7.232;2022-09-11T04:31:14;51475.31;;;-142.34;27.07
12951;BME280;6540;50.858;7.232;2022-09-11T04:33:40;51489.44;;;-142.34;26.73
12951;BME280;6540;50.858;7.232;2022-09-11T04:36:13;51426.91;;;-142.34;25.92
12951;BME280;6540;50.858;7.232;2022-09-11T04:38:41;51467.25;;;-142.34;26.44
12951;BME280;6540;50.858;7.232;2022-09-11T04:41:08;51495.47;;;-142.34;27.15
12951;BME280;6540;50.858;7.232;2022-09-11T04:43:35;51547.94;;;-142.34;28.39
12951;BME280;6540;50.858;7.232;2022-09-11T04:46:02;51467.25;;;-142.34;26.58
12951;BME280;6540;50.858;7.232;2022-09-11T04:48:29;51489.44;;;-142.34;26.41
12951;BME280;6540;50.858;7.232;2022-09-11T04:51:03;51543.88;;;-142.34;29.12
12951;BME280;6540;50.858;7.232;2022-09-11T04:53:29;51556.00;;;-142.34;28.80
12951;BME280;6540;50.858;7.232;2022-09-11T04:56:07;51499.50;;;-142.34;26.48
12951;BME280;6540;50.858;7.232;2022-09-11T04:58:34;51465.22;;;-142.34;26.59
12951;BME280;6540;50.858;7.232;2022-09-11T05:01:00;51511.63;;;-142.34;27.32
12951;BME280;6540;50.858;7.232;2022-09-11T05:03:25;51545.91;;;-142.34;27.41
12951;BME280;6540;50.858;7.232;2022-09-11T05:05:51;51461.19;;;-142.34;26.16
12951;BME280;6540;50.858;7.232;2022-09-11T05:08:17;51467.25;;;-142.34;26.58
12951;BME280;6540;50.858;7.232;2022-09-11T05:10:44;51463.22;;;-142.34;26.48
12951;BME280;6540;50.858;7.232;2022-09-11T05:13:11;51535.81;;;-142.34;28.44
12951;BME280;6540;50.858;7.232;2022-09-11T05:15:38;51517.66;;;-142.34;26.93
12951;BME280;6540;50.858;7.232;2022-09-11T05:18:03;51479.34;;;-142.34;26.19
12951;BME280;6540;50.858;7.232;2022-09-11T05:20:29;51545.91;;;-142.34;28.49
12951;BME280;6540;50.858;7.232;2022-09-11T05:22:55;51439.00;;;-142.34;26.66
12951;BME280;6540;50.858;7.232;2022-09-11T05:25:21;51467.25;;;-142.34;26.27
12951;BME280;6540;50.858;7.232;2022-09-11T05:27:46;51527.75;;;-142.34;27.98
12951;BME280;6540;50.858;7.232;2022-09-11T05:30:12;51513.63;;;-142.34;27.74
12951;BME280;6540;50.858;7.232;2022-09-11T05:32:38;51487.41;;;-142.34;26.27
12951;BME280;6540;50.858;7.232;2022-09-11T05:35:04;51386.56;;;-142.34;24.62
12951;BME280;6540;50.858;7.232;2022-09-11T05:37:31;51388.56;;;-142.34;25.04
12951;BME280;6540;50.858;7.232;2022-09-11T05:39:57;51390.59;;;-142.34;24.74
12951;BME280;6540;50.858;7.232;2022-09-11T05:42:23;51370.41;;;-142.34;24.65
12951;BME280;6540;50.858;7.232;2022-09-11T05:44:48;51386.56;;;-142.34;24.83
12951;BME280;6540;50.858;7.232;2022-09-11T05:47:14;51390.59;;;-142.34;24.56
12951;BME280;6540;50.858;7.232;2022-09-11T05:49:39;51350.25;;;-142.34;24.18
12951;BME280;6540;50.858;7.232;2022-09-11T05:52:04;51406.72;;;-142.34;24.99
12951;BME280;6540;50.858;7.232;2022-09-11T05:54:30;51354.28;;;-142.34;24.56
12951;BME280;6540;50.858;7.232;2022-09-11T05:56:56;51356.31;;;-142.34;24.78
12951;BME280;6540;50.858;7.232;2022-09-11T05:59:22;51378.50;;;-142.34;24.95
12951;BME280;6540;50.858;7.232;2022-09-11T06:01:47;51430.94;;;-142.34;25.72
12951;BME280;6540;50.858;7.232;2022-09-11T06:04:13;51430.94;;;-142.34;26.08
12951;BME280;6540;50.858;7.232;2022-09-11T06:06:38;51402.69;;;-142.34;25.83
12951;BME280;6540;50.858;7.232;2022-09-11T06:09:04;51418.84;;;-142.34;26.11
12951;BME280;6540;50.858;7.232;2022-09-11T06:11:31;51384.53;;;-142.34;25.56
12951;BME280;6540;50.858;7.232;2022-09-11T06:13:56;51533.81;;;-142.34;27.39
12951;BME280;6540;50.858;7.232;2022-09-11T06:16:22;51495.47;;;-142.34;27.19
12951;BME280;6540;50.858;7.232;2022-09-11T06:18:49;51479.34;;;-142.34;27.13
12951;BME280;6540;50.858;7.232;2022-09-11T06:21:17;51447.06;;;-142.34;26.41
12951;BME280;6540;50.858;7.232;2022-09-11T06:23:45;51398.66;;;-142.34;25.36
12951;BME280;6540;50.858;7.232;2022-09-11T06:26:12;51358.31;;;-142.34;24.66
12951;BME280;6540;50.858;7.232;2022-09-11T06:28:39;51358.31;;;-142.34;24.94
12951;BME280;6540;50.858;7.232;2022-09-11T06:31:07;51398.66;;;-142.34;25.84
12951;BME280;6540;50.858;7.232;2022-09-11T06:33:35;51491.44;;;-142.34;27.94
12951;BME280;6540;50.858;7.232;2022-09-11T06:36:04;51430.94;;;-142.34;26.22
12951;BME280;6540;50.858;7.232;2022-09-11T06:38:30;51471.28;;;-142.34;27.30
12951;BME280;6540;50.858;7.232;2022-09-11T06:41:02;51545.91;;;-142.34;28.63
12951;BME280;6540;50.858;7.232;2022-09-11T06:43:29;51501.53;;;-142.34;27.68
12951;BME280;6540;50.858;7.232;2022-09-11T06:45:54;51501.53;;;-142.34;27.45
12951;BME280;6540;50.858;7.232;2022-09-11T06:48:27;51459.16;;;-142.34;26.59
12951;BME280;6540;50.858;7.232;2022-09-11T06:50:54;51491.44;;;-142.34;28.12
12951;BME280;6540;50.858;7.232;2022-09-11T06:53:20;51511.63;;;-142.34;27.59
12951;BME280;6540;50.858;7.232;2022-09-11T06:55:45;51513.63;;;-142.34;27.02
12951;BME280;6540;50.858;7.232;2022-09-11T06:58:10;51483.38;;;-142.34;27.35
12951;BME280;6540;50.858;7.232;2022-09-11T07:00:36;51422.88;;;-142.34;26.50
12951;BME280;6540;50.858;7.232;2022-09-11T07:03:03;51414.78;;;-142.34;25.91
12951;BME280;6540;50.858;7.232;2022-09-11T07:05:28;51428.91;;;-142.34;25.86
12951;BME280;6540;50.858;7.232;2022-09-11T07:07:54;51432.94;;;-142.34;26.02
12951;BME280;6540;50.858;7.232;2022-09-11T07:10:21;51549.94;;;-142.34;27.72
12951;BME280;6540;50.858;7.232;2022-09-11T07:12:47;51402.69;;;-142.34;25.84
12951;BME280;6540;50.858;7.232;2022-09-11T07:15:12;51485.41;;;-142.34;27.05
12951;BME280;6540;50.858;7.232;2022-09-11T07:17:38;51551.97;;;-142.34;28.64
12951;BME280;6540;50.858;7.232;2022-09-11T07:20:04;51549.94;;;-142.34;28.27
12951;BME280;6540;50.858;7.232;2022-09-11T07:22:31;51541.88;;;-142.34;28.19
12951;BME280;6540;50.858;7.232;2022-09-11T07:24:57;51535.81;;;-142.34;27.67
12951;BME280;6540;50.858;7.232;2022-09-11T07:27:24;51475.31;;;-142.34;26.17
12951;BME280;6540;50.858;7.232;2022-09-11T07:29:49;51473.28;;;-142.34;26.96
12951;BME280;6540;50.858;7.232;2022-09-11T07:32:14;51576.16;;;-142.34;27.90
12951;BME280;6540;50.858;7.232;2022-09-11T07:34:40;51461.19;;;-142.34;26.56
12951;BME280;6540;50.858;7.232;2022-09-11T07:37:05;51386.56;;;-142.34;24.90
12951;BME280;6540;50.858;7.232;2022-09-11T07:39:30;51551.97;;;-142.34;28.06
12951;BME280;6540;50.858;7.232;2022-09-11T07:41:56;51549.94;;;-142.34;28.29
12951;BME280;6540;50.858;7.232;2022-09-11T07:44:21;51547.94;;;-142.34;28.66
12951;BME280;6540;50.858;7.232;2022-09-11T07:46:50;51543.88;;;-142.34;27.85
12951;BME280;6540;50.858;7.232;2022-09-11T07:49:15;51499.50;;;-142.34;27.13
12951;BME280;6540;50.858;7.232;2022-09-11T07:51:41;51511.63;;;-142.34;27.07
12951;BME280;6540;50.858;7.232;2022-09-11T07:54:09;51394.63;;;-142.34;26.11
12951;BME280;6540;50.858;7.232;2022-09-11T07:56:34;51414.78;;;-142.34;25.31
12951;BME280;6540;50.858;7.232;2022-09-11T07:59:06;51479.34;;;-142.34;26.10
12951;BME280;6540;50.858;7.232;2022-09-11T08:01:31;51436.97;;;-142.34;26.23
12951;BME280;6540;50.858;7.232;2022-09-11T08:04:03;51570.13;;;-142.34;29.65
12951;BME280;6540;50.858;7.232;2022-09-11T08:06:31;51543.88;;;-142.34;28.93
12951;BME280;6540;50.858;7.232;2022-09-11T08:09:00;51541.88;;;-142.34;29.18
12951;BME280;6540;50.858;7.232;2022-09-11T08:11:27;51560.03;;;-142.34;29.20
12951;BME280;6540;50.858;7.232;2022-09-11T08:13:54;51503.53;;;-142.34;27.21
12951;BME280;6540;50.858;7.232;2022-09-11T08:16:21;51439.00;;;-142.34;26.37
12951;BME280;6540;50.858;7.232;2022-09-11T08:18:47;51447.06;;;-142.34;26.64
12951;BME280;6540;50.858;7.232;2022-09-11T08:21:13;51539.84;;;-142.34;28.77
12951;BME280;6540;50.858;7.232;2022-09-11T08:23:41;51511.63;;;-142.34;27.66
12951;BME280;6540;50.858;7.232;2022-09-11T08:26:09;51408.75;;;-142.34;25.94
12951;BME280;6540;50.858;7.232;2022-09-11T08:28:35;51533.81;;;-142.34;28.51
12951;BME280;6540;50.858;7.232;2022-09-11T08:31:01;51471.28;;;-142.34;26.17
12951;BME280;6540;50.858;7.232;2022-09-11T08:33:28;51467.25;;;-142.34;27.04
12951;BME280;6540;50.858;7.232;2022-09-11T08:35:54;51404.72;;;-142.34;24.95
12951;BME280;6540;50.858;7.232;2022-09-11T08:38:21;51346.22;;;-142.34;25.01
12951;BME280;6540;50.858;7.232;2022-09-11T08:40:47;51531.78;;;-142.34;29.05
12951;BME280;6540;50.858;7.232;2022-09-11T08:43:22;51503.53;;;-142.34;27.15
12951;BME280;6540;50.858;7.232;2022-09-11T08:45:49;51471.28;;;-142.34;27.17
12951;BME280;6540;50.858;7.232;2022-09-11T08:48:18;51511.63;;;-142.34;28.54
12951;BME280;6540;50.858;7.232;2022-09-11T08:50:46;51564.06;;;-142.34;29.75
12951;BME280;6540;50.858;7.232;2022-09-11T08:53:15;51515.66;;;-142.34;27.82
12951;BME280;6540;50.858;7.232;2022-09-11T08:55:50;51451.09;;;-142.34;26.85
12951;BME280;6540;50.858;7.232;2022-09-11T08:58:39;51396.63;;;-142.34;25.06
12951;BME280;6540;50.858;7.232;2022-09-11T09:04:02;51390.59;;;-142.34;25.86
12951;BME280;6540;50.858;7.232;2022-09-11T09:12:25;51404.72;;;-142.34;25.55
12951;BME280;6540;50.858;7.232;2022-09-11T09:20:17;51507.59;;;-142.34;28.63
12951;BME280;6540;50.858;7.232;2022-09-11T09:22:50;51408.75;;;-142.34;26.35
12951;BME280;6540;50.858;7.232;2022-09-11T09:25:21;51495.47;;;-142.34;28.75
12951;BME280;6540;50.858;7.232;2022-09-11T09:27:50;51564.06;;;-142.34;29.07
12951;BME280;6540;50.858;7.232;2022-09-11T09:30:20;51545.91;;;-142.34;29.21
12951;BME280;6540;50.858;7.232;2022-09-11T09:32:58;51564.06;;;-142.34;29.51
12951;BME280;6540;50.858;7.232;2022-09-11T09:35:48;51551.97;;;-142.34;30.26
12951;BME280;6540;50.858;7.232;2022-09-11T09:38:16;51511.63;;;-142.34;28.14
12951;BME280;6540;50.858;7.232;2022-09-11T09:48:40;51535.81;;;-142.34;28.75
12951;BME280;6540;50.858;7.232;2022-09-11T09:51:10;51473.28;;;-142.34;27.22
12951;BME280;6540;50.858;7.232;2022-09-11T09:53:53;51394.63;;;-142.34;25.89
12951;BME280;6540;50.858;7.232;2022-09-11T09:56:21;51527.75;;;-142.34;28.14
12951;BME280;6540;50.858;7.232;2022-09-11T09:58:53;51473.28;;;-142.34;27.04
12951;BME280;6540;50.858;7.232;2022-09-11T10:04:12;51487.41;;;-142.34;27.31
12951;BME280;6540;50.858;7.232;2022-09-11T10:06:38;51495.47;;;-142.34;27.85
12951;BME280;6540;50.858;7.232;2022-09-11T10:09:03;51463.22;;;-142.34;26.40
12951;BME280;6540;50.858;7.232;2022-09-11T10:11:29;51390.59;;;-142.34;25.49
12951;BME280;6540;50.858;7.232;2022-09-11T10:13:55;51499.50;;;-142.34;27.61
12951;BME280;6540;50.858;7.232;2022-09-11T10:16:25;51503.53;;;-142.34;27.97
12951;BME280;6540;50.858;7.232;2022-09-11T10:18:52;51515.66;;;-142.34;28.55
12951;BME280;6540;50.858;7.232;2022-09-11T10:21:26;51513.63;;;-142.34;28.17
12951;BME280;6540;50.858;7.232;2022-09-11T10:24:00;51515.66;;;-142.34;28.74
12951;BME280;6540;50.858;7.232;2022-09-11T10:29:13;51455.13;;;-142.34;26.75
12951;BME280;6540;50.858;7.232;2022-09-11T10:31:40;51354.28;;;-142.34;25.05
12951;BME280;6540;50.858;7.232;2022-09-11T10:34:16;51467.25;;;-142.34;26.48
12951;BME280;6540;50.858;7.232;2022-09-11T10:37:00;51543.88;;;-142.34;28.34
12951;BME280;6540;50.858;7.232;2022-09-11T10:39:28;51465.22;;;-142.34;26.19
12951;BME280;6540;50.858;7.232;2022-09-11T10:41:57;51334.13;;;-142.34;24.70
12951;BME280;6540;50.858;7.232;2022-09-11T10:44:27;51315.97;;;-142.34;23.92
12951;BME280;6540;50.858;7.232;2022-09-11T10:47:29;51305.88;;;-142.34;24.31
12951;BME280;6540;50.858;7.232;2022-09-11T10:55:13;51255.44;;;-142.34;23.58
12951;BME280;6540;50.858;7.232;2022-09-11T10:57:52;51233.25;;;-142.34;23.10
12951;BME280;6540;50.858;7.232;2022-09-11T11:00:21;51358.31;;;-142.34;24.52
12951;BME280;6540;50.858;7.232;2022-09-11T11:02:56;51281.66;;;-142.34;23.19
12951;BME280;6540;50.858;7.232;2022-09-11T11:08:42;51330.06;;;-142.34;24.24
12951;BME280;6540;50.858;7.232;2022-09-11T11:27:33;51406.72;;;-142.34;25.37
12951;BME280;6540;50.858;7.232;2022-09-11T11:30:35;51426.91;;;-142.34;26.38
12951;BME280;6540;50.858;7.232;2022-09-11T11:41:11;51309.91;;;-142.34;24.00
12951;BME280;6540;50.858;7.232;2022-09-11T11:43:39;51396.63;;;-142.34;25.41
12951;BME280;6540;50.858;7.232;2022-09-11T11:46:39;51293.78;;;-142.34;23.62
12951;BME280;6540;50.858;7.232;2022-09-11T11:49:06;51455.13;;;-142.34;25.98
12951;BME280;6540;50.858;7.232;2022-09-11T11:51:42;51366.38;;;-142.34;24.25
12951;BME280;6540;50.858;7.232;2022-09-11T11:54:19;51313.94;;;-142.34;23.95
12951;BME280;6540;50.858;7.232;2022-09-11T11:56:52;51455.13;;;-142.34;26.01
12951;BME280;6540;50.858;7.232;2022-09-11T12:02:19;51533.81;;;-142.34;27.45
12951;BME280;6540;50.858;7.232;2022-09-11T12:04:51;51358.31;;;-142.34;24.28
12951;BME280;6540;50.858;7.232;2022-09-11T12:07:23;51406.72;;;-142.34;25.88
12951;BME280;6540;50.858;7.232;2022-09-11T12:09:52;51491.44;;;-142.34;27.54
12951;BME280;6540;50.858;7.232;2022-09-11T12:12:20;51531.78;;;-142.34;27.11
12951;BME280;6540;50.858;7.232;2022-09-11T12:14:49;51418.84;;;-142.34;25.14
12951;BME280;6540;50.858;7.232;2022-09-11T12:17:25;51340.16;;;-142.34;23.37
12951;BME280;6540;50.858;7.232;2022-09-11T12:22:36;51471.28;;;-142.34;26.46
12951;BME280;6540;50.858;7.232;2022-09-11T12:28:21;51336.13;;;-142.34;24.14
12951;BME280;6540;50.858;7.232;2022-09-11T12:38:47;51362.34;;;-142.34;23.70
12951;BME280;6540;50.858;7.232;2022-09-11T12:41:25;51330.06;;;-142.34;23.17
12951;BME280;6540;50.858;7.232;2022-09-11T12:43:51;51293.78;;;-142.34;23.21
12951;BME280;6540;50.858;7.232;2022-09-11T12:54:20;51358.31;;;-142.34;24.07
12951;BME280;6540;50.858;7.232;2022-09-11T12:57:08;51358.31;;;-142.34;24.07
12951;BME280;6540;50.858;7.232;2022-09-11T12:59:40;51285.72;;;-142.34;22.93
12951;BME280;6540;50.858;7.232;2022-09-11T13:02:26;51233.25;;;-142.34;22.72
12951;BME280;6540;50.858;7.232;2022-09-11T13:04:53;51297.81;;;-142.34;23.08
12951;BME280;6540;50.858;7.232;2022-09-11T13:07:30;51289.75;;;-142.34;23.53
12951;BME280;6540;50.858;7.232;2022-09-11T13:10:04;51414.78;;;-142.34;24.58
12951;BME280;6540;50.858;7.232;2022-09-11T13:12:47;51305.88;;;-142.34;23.61
12951;BME280;6540;50.858;7.232;2022-09-11T13:15:33;51289.75;;;-142.34;22.74
12951;BME280;6540;50.858;7.232;2022-09-11T13:18:00;51245.38;;;-142.34;22.28
12951;BME280;6540;50.858;7.232;2022-09-11T13:20:25;51422.88;;;-142.34;25.70
12951;BME280;6540;50.858;7.232;2022-09-11T13:22:51;51305.88;;;-142.34;23.48
12951;BME280;6540;50.858;7.232;2022-09-11T13:25:21;51360.34;;;-142.34;24.75
12951;BME280;6540;50.858;7.232;2022-09-11T13:27:51;51328.06;;;-142.34;23.72
12951;BME280;6540;50.858;7.232;2022-09-11T13:30:20;51301.84;;;-142.34;23.70
12951;BME280;6540;50.858;7.232;2022-09-11T13:32:48;51414.78;;;-142.34;23.80
12951;BME280;6540;50.858;7.232;2022-09-11T13:35:19;51334.13;;;-142.34;23.04
12951;BME280;6540;50.858;7.232;2022-09-11T13:37:57;51352.28;;;-142.34;23.89
12951;BME280;6540;50.858;7.232;2022-09-11T13:40:33;51354.28;;;-142.34;24.18
12951;BME280;6540;50.858;7.232;2022-09-11T13:43:03;51334.13;;;-142.34;23.23
12951;BME280;6540;50.858;7.232;2022-09-11T13:45:29;51201.00;;;-142.34;22.03
12951;BME280;6540;50.858;7.232;2022-09-11T13:47:54;51297.81;;;-142.34;23.19
12951;BME280;6540;50.858;7.232;2022-09-11T13:50:22;51313.94;;;-142.34;23.49
12951;BME280;6540;50.858;7.232;2022-09-11T13:52:49;51406.72;;;-142.34;25.07
12951;BME280;6540;50.858;7.232;2022-09-11T13:55:23;51221.16;;;-142.34;22.38
12951;BME280;6540;50.858;7.232;2022-09-11T13:57:57;51221.16;;;-142.34;22.33
12951;BME280;6540;50.858;7.232;2022-09-11T14:03:00;51295.78;;;-142.34;23.06
12951;BME280;6540;50.858;7.232;2022-09-11T14:05:28;51279.66;;;-142.34;23.54
12951;BME280;6540;50.858;7.232;2022-09-11T14:10:47;51346.22;;;-142.34;24.02
12951;BME280;6540;50.858;7.232;2022-09-11T14:13:31;51267.56;;;-142.34;22.63
12951;BME280;6540;50.858;7.232;2022-09-11T14:18:42;51249.41;;;-142.34;21.74
12951;BME280;6540;50.858;7.232;2022-09-11T14:21:21;51168.72;;;-142.34;22.21
12951;BME280;6540;50.858;7.232;2022-09-11T14:23:53;51428.91;;;-142.34;25.43
12951;BME280;6540;50.858;7.232;2022-09-11T14:34:15;51328.06;;;-142.34;22.44
12951;BME280;6540;50.858;7.232;2022-09-11T14:39:45;51267.56;;;-142.34;21.91
12951;BME280;6540;50.858;7.232;2022-09-11T14:42:14;51334.13;;;-142.34;22.12
12951;BME280;6540;50.858;7.232;2022-09-11T14:44:41;51265.53;;;-142.34;22.63
12951;BME280;6540;50.858;7.232;2022-09-11T14:47:17;51174.78;;;-142.34;22.56
12951;BME280;6540;50.858;7.232;2022-09-11T14:49:46;51293.78;;;-142.34;23.52
12951;BME280;6540;50.858;7.232;2022-09-11T14:52:26;51245.38;;;-142.34;21.89
12951;BME280;6540;50.858;7.232;2022-09-11T14:54:52;51229.22;;;-142.34;22.04
12951;BME280;6540;50.858;7.232;2022-09-11T14:57:23;51196.97;;;-142.34;21.75
12951;BME280;6540;50.858;7.232;2022-09-11T14:59:49;51192.91;;;-142.34;21.41
12951;BME280;6540;50.858;7.232;2022-09-11T15:02:23;51152.59;;;-142.34;21.23
12951;BME280;6540;50.858;7.232;2022-09-11T15:04:51;51196.97;;;-142.34;21.25
12951;BME280;6540;50.858;7.232;2022-09-11T15:07:18;51209.06;;;-142.34;21.58
12951;BME280;6540;50.858;7.232;2022-09-11T15:09:44;51269.56;;;-142.34;21.99
12951;BME280;6540;50.858;7.232;2022-09-11T15:12:11;51221.16;;;-142.34;21.88
12951;BME280;6540;50.858;7.232;2022-09-11T15:14:38;51309.91;;;-142.34;22.47
12951;BME280;6540;50.858;7.232;2022-09-11T15:17:07;51176.78;;;-142.34;21.62
12951;BME280;6540;50.858;7.232;2022-09-11T15:19:33;51366.38;;;-142.34;23.06
12951;BME280;6540;50.858;7.232;2022-09-11T15:22:01;51271.59;;;-142.34;22.26
12951;BME280;6540;50.858;7.232;2022-09-11T15:24:27;51299.81;;;-142.34;22.29
12951;BME280;6540;50.858;7.232;2022-09-11T15:26:54;51215.09;;;-142.34;21.73
12951;BME280;6540;50.858;7.232;2022-09-11T15:29:20;51271.59;;;-142.34;22.69
12951;BME280;6540;50.858;7.232;2022-09-11T15:31:46;51221.16;;;-142.34;21.42